Weather History for KAHQ - May, 2014

Change the Weather History Date:

Friday, May 9, 2014

  Actual Average Record
Temperature  
Mean Temperature 56 °F -  
Max Temperature 71 °F 72 °F 86 °F (1970)
Min Temperature 42 °F 46 °F 29 °F (1980)
Degree Days  
Heating Degree Days 8    
Growing Degree Days 6 (Base 50)    
Moisture  
Dew Point 35 °F    
Average Humidity 50    
Maximum Humidity 80    
Minimum Humidity 23    
Precipitation  
Precipitation 0.00 in - - ()
Sea Level Pressure  
Sea Level Pressure 29.84 in    
Wind  
Wind Speed 12 mph (West)    
Max Wind Speed 22 mph    
Max Gust Speed 31 mph    
Visibility 10 miles    
Events      
Averages and records for this station are not official NWS values.
T = Trace of Precipitation, MM = Missing Value Source: NWS Daily Summary

Daily Weather History Graph

Daily Weather History Graph

Search for Another Location

Airport or City:

Trip Planner

Search our weather history database for the weather conditions in past years. The results will help you decide how hot, cold, wet, or windy it might be!

Date:

Astronomy

May. 09, 2014 Rise Set
Actual Time 6:14 AM CDT 8:32 PM CDT
Civil Twilight 5:43 AM CDT 9:02 PM CDT
Nautical Twilight 5:05 AM CDT 9:41 PM CDT
Astronomical Twilight 4:23 AM CDT 10:23 PM CDT
Moon 3:27 PM CDT (5/9) 3:20 AM CDT (5/9)
Length of Visible Light 15h 19m
Length of Day
14h 17m
Waxing Gibbous, 74% of the Moon is Illuminated
May 9
Waxing Gibbous
May 14
Full
May 21
Last Quarter
May 28
New
Jun 5
First Quarter

Hourly Weather History & Observations

Time (CDT) Temp. Windchill Dew Point Humidity Pressure Visibility Wind Dir Wind Speed Gust Speed Precip Events Conditions
12:15 AM 49.1 °F - 39.9 °F 71% 29.83 in 10.0 mi WNW 12.7 mph - N/A   Overcast
12:35 AM 48.6 °F - 38.8 °F 69% 29.83 in 10.0 mi WNW 19.6 mph 24.2 mph N/A   Overcast
12:55 AM 47.8 °F - 38.5 °F 70% 29.83 in 10.0 mi WNW 21.9 mph 28.8 mph N/A   Overcast
1:15 AM 47.5 °F - 38.3 °F 70% 29.83 in 10.0 mi WNW 21.9 mph 31.1 mph N/A   Overcast
1:35 AM 46.6 °F - 37.9 °F 72% 29.82 in 10.0 mi WNW 19.6 mph 26.5 mph N/A   Scattered Clouds
1:55 AM 46.8 °F - 38.3 °F 72% 29.82 in 10.0 mi WNW 17.3 mph 27.6 mph N/A   Mostly Cloudy
2:15 AM 47.3 °F - 38.5 °F 71% 29.82 in 10.0 mi WNW 20.7 mph 25.3 mph N/A   Overcast
2:35 AM 47.3 °F - 37.6 °F 69% 29.82 in 10.0 mi WNW 17.3 mph 24.2 mph N/A   Overcast
2:55 AM 46.9 °F - 37.6 °F 70% 29.82 in 10.0 mi WNW 20.7 mph 26.5 mph N/A   Overcast
3:15 AM 45.9 °F 37.8 °F 36.5 °F 70% 29.81 in 10.0 mi NW 21.9 mph 27.6 mph N/A   Mostly Cloudy
3:35 AM 44.6 °F 38.1 °F 36.7 °F 74% 29.82 in 10.0 mi NW 13.8 mph 19.6 mph N/A   Scattered Clouds
3:55 AM 44.6 °F 38.4 °F 36.7 °F 74% 29.82 in 10.0 mi NW 12.7 mph - N/A   Clear
4:15 AM 44.1 °F 39.5 °F 36.5 °F 75% 29.82 in 10.0 mi NW 8.1 mph - N/A   Clear
4:35 AM 44.1 °F 38.6 °F 36.7 °F 75% 29.83 in 10.0 mi NW 10.4 mph - N/A   Clear
4:55 AM 43.9 °F 38.8 °F 37.0 °F 77% 29.84 in 10.0 mi WNW 9.2 mph - N/A   Clear
5:15 AM 43.9 °F 39.9 °F 37.2 °F 77% 29.85 in 10.0 mi WNW 6.9 mph - N/A   Clear
5:35 AM 42.8 °F 40.1 °F 36.9 °F 80% 29.85 in 10.0 mi WSW 4.6 mph - N/A   Clear
5:55 AM 42.8 °F 38.0 °F 37.0 °F 80% 29.86 in 10.0 mi West 8.1 mph - N/A   Clear
6:15 AM 42.8 °F 39.3 °F 37.0 °F 80% 29.87 in 10.0 mi WSW 5.8 mph - N/A   Clear
6:35 AM 42.8 °F 37.5 °F 37.0 °F 80% 29.88 in 10.0 mi West 9.2 mph - N/A   Clear
6:55 AM 43.7 °F 39.7 °F 37.4 °F 78% 29.88 in 10.0 mi West 6.9 mph - N/A   Clear
7:15 AM 44.1 °F 39.5 °F 37.8 °F 78% 29.88 in 10.0 mi West 8.1 mph - N/A   Clear
7:35 AM 45.1 °F 40.3 °F 37.9 °F 76% 29.89 in 10.0 mi West 9.2 mph - N/A   Clear
7:55 AM 46.4 °F 41.1 °F 37.9 °F 72% 29.90 in 10.0 mi West 11.5 mph - N/A   Clear
8:15 AM 47.5 °F - 38.1 °F 70% 29.90 in 10.0 mi West 12.7 mph 16.1 mph N/A   Clear
8:35 AM 48.4 °F - 37.9 °F 67% 29.90 in 10.0 mi WNW 13.8 mph - N/A   Clear
8:55 AM 49.8 °F - 38.3 °F 65% 29.90 in 10.0 mi WNW 11.5 mph - N/A   Clear
9:15 AM 51.1 °F - 38.5 °F 62% 29.90 in 10.0 mi NW 11.5 mph - N/A   Clear
9:35 AM 52.3 °F - 38.1 °F 58% 29.90 in 10.0 mi WNW 10.4 mph - N/A   Clear
9:55 AM 53.1 °F - 37.2 °F 55% 29.89 in 10.0 mi NW 11.5 mph - N/A   Clear
10:15 AM 54.3 °F - 37.2 °F 52% 29.88 in 10.0 mi NW 8.1 mph - N/A   Clear
10:35 AM 54.7 °F - 36.0 °F 49% 29.88 in 10.0 mi NW 9.2 mph - N/A   Clear
10:55 AM 56.7 °F - 33.3 °F 41% 29.88 in 10.0 mi West 9.2 mph 17.3 mph N/A   Clear
11:15 AM 57.4 °F - 34.2 °F 42% 29.88 in 10.0 mi NW 10.4 mph 16.1 mph N/A   Clear
11:35 AM 58.3 °F - 34.7 °F 41% 29.88 in 10.0 mi West 8.1 mph - N/A   Clear
11:55 AM 58.8 °F - 34.5 °F 40% 29.88 in 10.0 mi West 10.4 mph - N/A   Clear
12:15 PM 58.8 °F - 33.1 °F 38% 29.87 in 10.0 mi NW 3.5 mph - N/A   Clear
12:35 PM 59.9 °F - 33.6 °F 37% 29.87 in 10.0 mi SW 5.8 mph - N/A   Clear
12:55 PM 61.5 °F - 32.5 °F 34% 29.87 in 10.0 mi West 8.1 mph - N/A   Clear
1:15 PM 61.7 °F - 32.4 °F 33% 29.86 in 10.0 mi WSW 10.4 mph - N/A   Clear
1:35 PM 64.4 °F - 32.0 °F 30% 29.85 in 10.0 mi West 9.2 mph 19.6 mph N/A   Clear
1:55 PM 65.1 °F - 32.2 °F 29% 29.85 in 10.0 mi West 10.4 mph 17.3 mph N/A   Clear
2:15 PM 65.1 °F - 31.6 °F 29% 29.85 in 10.0 mi West 12.7 mph 16.1 mph N/A   Clear
2:35 PM 66.7 °F - 31.6 °F 27% 29.84 in 10.0 mi West 12.7 mph 18.4 mph N/A   Clear
2:55 PM 67.1 °F - 31.3 °F 26% 29.84 in 10.0 mi WSW 5.8 mph 21.9 mph N/A   Clear
3:15 PM 68.4 °F - 32.0 °F 26% 29.83 in 10.0 mi WSW 9.2 mph 16.1 mph N/A   Clear
3:35 PM 67.6 °F - 30.9 °F 25% 29.83 in 10.0 mi WNW 5.8 mph 16.1 mph N/A   Clear
3:55 PM 67.6 °F - 32.2 °F 27% 29.82 in 10.0 mi WSW 8.1 mph - N/A   Scattered Clouds
4:15 PM 69.3 °F - 32.4 °F 26% 29.81 in 10.0 mi West 11.5 mph 18.4 mph N/A   Scattered Clouds
4:35 PM 69.8 °F - 32.4 °F 25% 29.81 in 10.0 mi West 11.5 mph 17.3 mph N/A   Clear
4:55 PM 70.5 °F - 32.0 °F 24% 29.80 in 10.0 mi West 13.8 mph 21.9 mph N/A   Clear
5:15 PM 70.2 °F - 32.4 °F 25% 29.80 in 10.0 mi WSW 15.0 mph 19.6 mph N/A   Clear
5:35 PM 71.2 °F - 31.8 °F 23% 29.79 in 10.0 mi West 12.7 mph - N/A   Clear
5:55 PM 71.2 °F - 32.0 °F 24% 29.79 in 10.0 mi WSW 9.2 mph - N/A   Clear
6:15 PM 71.6 °F - 31.3 °F 23% 29.79 in 10.0 mi West 13.8 mph 18.4 mph N/A   Clear
6:35 PM 71.1 °F - 31.6 °F 23% 29.78 in 10.0 mi WNW 6.9 mph - N/A   Clear
6:55 PM 70.9 °F - 32.4 °F 24% 29.78 in 10.0 mi WSW 4.6 mph - N/A   Clear
7:15 PM 70.7 °F - 31.8 °F 24% 29.78 in 10.0 mi Calm Calm - N/A   Clear
7:35 PM 70.2 °F - 30.7 °F 23% 29.78 in 10.0 mi Calm Calm - N/A   Clear
7:55 PM 68.5 °F - 31.5 °F 25% 29.78 in 10.0 mi Calm Calm - N/A   Clear
8:15 PM 67.1 °F - 32.2 °F 27% 29.78 in 4.0 mi Calm Calm - N/A   Haze
8:35 PM 64.6 °F - 32.9 °F 31% 29.79 in 10.0 mi East 3.5 mph - N/A   Clear
8:55 PM 61.7 °F - 34.2 °F 36% 29.79 in 10.0 mi East 6.9 mph - N/A   Clear
9:15 PM 59.4 °F - 36.0 °F 42% 29.79 in 10.0 mi East 6.9 mph - N/A   Clear
9:35 PM 58.3 °F - 36.0 °F 43% 29.80 in 10.0 mi East 6.9 mph - N/A   Clear
9:55 PM 56.1 °F - 36.3 °F 47% 29.80 in 10.0 mi ESE 9.2 mph - N/A   Clear
10:15 PM 56.3 °F - 37.4 °F 49% 29.81 in 10.0 mi ESE 6.9 mph - N/A   Clear
10:35 PM 55.8 °F - 36.1 °F 48% 29.81 in 10.0 mi SE 4.6 mph - N/A   Clear
10:55 PM 54.7 °F - 38.3 °F 54% 29.81 in 10.0 mi SE 5.8 mph - N/A   Clear
11:15 PM 53.4 °F - 38.8 °F 58% 29.81 in 10.0 mi SE 5.8 mph - N/A   Clear
11:35 PM 53.1 °F - 38.8 °F 59% 29.81 in 10.0 mi SSE 5.8 mph - N/A   Clear
11:55 PM 52.0 °F - 38.8 °F 61% 29.81 in 10.0 mi SE 5.8 mph - N/A   Scattered Clouds